PWSweather.com
Personal Weather Stations
Station Observations
IMAZOWIE6
WarszawaPL

WarszawaPL

Lat: 52.27957, Lon: 21.05489

Elevation: 100

Station Type: WS1080

http://stacjapogody.waw.pl/

High Low Average
Temperature 33.4°F0.8°C 15.6°F-9.1°C 20.9°F-6.2°C
Dew Point 6.3°F-14.3°C -171.2°F-112.9°C -107.6°F-77.6°C
Winds 1.4 mph 2.3 kmh Calm Calm Calm NCalm N
Wind Gusts 4.0 mph6.4 kmh -- 1.0 mph1.6 kmh
Humidity 32% 10% 21%
Pressure 29.97 in1014.9 mb 28.92 in979.3 mb -
Precipitation 0.00 in0.0 mm - -
Hour Temp Dew Point Humidity Winds Wind Gusts Pressure Precip Precip Rate Daily Precip Total
12:06 AM 33.3°F0.7°C 6.3°F-14.3°C 32% Calm Calm 4.0 mph6.4 kmh 28.92 in979.3 mb 0.00 in0.0 mm 0.00 in0.0 mm 0.00 in0.0 mm
12:21 AM 33.3°F0.7°C 6.3°F-14.3°C 32% 0.6 mph N1.0 kmh N 3.4 mph5.5 kmh 28.94 in980.0 mb 0.00 in0.0 mm 0.00 in0.0 mm 0.00 in0.0 mm
12:36 AM 33.4°F0.8°C 5.8°F-14.6°C 31% Calm Calm 0.6 mph1.0 kmh 28.96 in980.7 mb 0.00 in0.0 mm 0.00 in0.0 mm 0.00 in0.0 mm
12:51 AM 32.5°F0.3°C 4.3°F-15.4°C 30% Calm Calm 0.6 mph1.0 kmh 28.98 in981.4 mb 0.00 in0.0 mm 0.00 in0.0 mm 0.00 in0.0 mm
01:06 AM 31.6°F-0.2°C 3.5°F-15.8°C 30% Calm Calm 1.4 mph2.3 kmh 28.99 in981.7 mb 0.00 in0.0 mm 0.00 in0.0 mm 0.00 in0.0 mm
01:21 AM 29.7°F-1.3°C 2.5°F-16.4°C 31% 1.4 mph N2.3 kmh N 2.8 mph4.5 kmh 29.02 in982.7 mb 0.00 in0.0 mm 0.00 in0.0 mm 0.00 in0.0 mm
01:36 AM 29.1°F-1.6°C 2.7°F-16.3°C 32% Calm Calm 0.6 mph1.0 kmh 29.03 in983.1 mb 0.00 in0.0 mm 0.00 in0.0 mm 0.00 in0.0 mm
01:51 AM 28.4°F-2.0°C 1.4°F-17.0°C 31% Calm Calm 1.4 mph2.3 kmh 29.05 in983.7 mb 0.00 in0.0 mm 0.00 in0.0 mm 0.00 in0.0 mm
02:06 AM 28.4°F-2.0°C 0.0°F-17.8°C 29% Calm Calm 2.8 mph4.5 kmh 29.07 in984.4 mb 0.00 in0.0 mm 0.00 in0.0 mm 0.00 in0.0 mm
02:21 AM 27.5°F-2.5°C -3.1°F-19.5°C 26% Calm Calm 1.4 mph2.3 kmh 29.08 in984.8 mb 0.00 in0.0 mm 0.00 in0.0 mm 0.00 in0.0 mm
02:36 AM 26.8°F-2.9°C -3.7°F-19.8°C 26% Calm Calm 1.4 mph2.3 kmh 29.10 in985.4 mb 0.00 in0.0 mm 0.00 in0.0 mm 0.00 in0.0 mm
02:51 AM 26.4°F-3.1°C -5.7°F-20.9°C 24% 0.6 mph N1.0 kmh N 2.8 mph4.5 kmh 29.11 in985.8 mb 0.01 in0.3 mm 0.05 in1.3 mm 0.01 in0.3 mm
03:06 AM 26.2°F-3.2°C -5.9°F-21.1°C 24% Calm Calm 1.4 mph2.3 kmh 29.13 in986.5 mb 0.01 in0.3 mm 0.00 in0.0 mm 0.01 in0.3 mm
03:21 AM 25.7°F-3.5°C -7.2°F-21.8°C 23% Calm Calm 2.8 mph4.5 kmh 29.15 in987.1 mb 0.00 in0.0 mm 0.00 in0.0 mm 0.01 in0.3 mm
03:36 AM 25.2°F-3.8°C -9.5°F-23.1°C 21% Calm Calm 1.4 mph2.3 kmh 29.16 in987.5 mb 0.00 in0.0 mm 0.00 in0.0 mm 0.01 in0.3 mm
03:51 AM 25.2°F-3.8°C -9.5°F-23.1°C 21% Calm Calm 1.4 mph2.3 kmh 29.18 in988.1 mb 0.00 in0.0 mm 0.00 in0.0 mm 0.01 in0.3 mm
04:06 AM 25.0°F-3.9°C -9.6°F-23.1°C 21% 1.4 mph N2.3 kmh N 3.4 mph5.5 kmh 29.19 in988.5 mb 0.00 in0.0 mm 0.00 in0.0 mm 0.01 in0.3 mm
04:21 AM 24.8°F-4.0°C -10.8°F-23.8°C 20% 0.6 mph N1.0 kmh N 1.4 mph2.3 kmh 29.20 in988.8 mb 0.00 in0.0 mm 0.00 in0.0 mm 0.01 in0.3 mm
04:36 AM 24.1°F-4.4°C -11.4°F-24.1°C 20% Calm Calm 1.4 mph2.3 kmh 29.21 in989.2 mb 0.00 in0.0 mm 0.00 in0.0 mm 0.01 in0.3 mm
04:51 AM 23.4°F-4.8°C -11.0°F-23.9°C 21% Calm Calm 1.4 mph2.3 kmh 29.23 in989.8 mb 0.00 in0.0 mm 0.00 in0.0 mm 0.01 in0.3 mm
05:06 AM 23.2°F-4.9°C -12.1°F-24.5°C 20% Calm Calm 1.4 mph2.3 kmh 29.24 in990.2 mb 0.00 in0.0 mm 0.00 in0.0 mm 0.01 in0.3 mm
05:21 AM 23.0°F-5.0°C -13.3°F-25.2°C 19% Calm Calm 0.6 mph1.0 kmh 29.26 in990.9 mb 0.00 in0.0 mm 0.00 in0.0 mm 0.01 in0.3 mm
05:36 AM 23.0°F-5.0°C -14.3°F-25.7°C 18% Calm Calm 2.0 mph3.2 kmh 29.28 in991.5 mb 0.00 in0.0 mm 0.00 in0.0 mm 0.01 in0.3 mm
05:51 AM 23.0°F-5.0°C -14.3°F-25.7°C 18% Calm Calm 0.6 mph1.0 kmh 29.29 in991.9 mb 0.00 in0.0 mm 0.00 in0.0 mm 0.01 in0.3 mm
06:06 AM 23.2°F-4.9°C -14.2°F-25.7°C 18% Calm Calm 2.8 mph4.5 kmh 29.30 in992.2 mb 0.00 in0.0 mm 0.00 in0.0 mm 0.01 in0.3 mm
06:21 AM 23.2°F-4.9°C -16.5°F-26.9°C 16% Calm Calm 1.4 mph2.3 kmh 29.32 in992.9 mb 0.00 in0.0 mm 0.00 in0.0 mm 0.01 in0.3 mm
06:36 AM 23.2°F-4.9°C -17.7°F-27.6°C 15% 0.6 mph N1.0 kmh N 2.0 mph3.2 kmh 29.33 in993.2 mb 0.00 in0.0 mm 0.00 in0.0 mm 0.01 in0.3 mm
06:51 AM 23.0°F-5.0°C -19.2°F-28.4°C 14% Calm Calm 0.6 mph1.0 kmh 29.34 in993.6 mb 0.00 in0.0 mm 0.00 in0.0 mm 0.01 in0.3 mm
07:06 AM 23.2°F-4.9°C -19.0°F-28.3°C 14% Calm Calm 0.6 mph1.0 kmh 29.36 in994.2 mb 0.00 in0.0 mm 0.00 in0.0 mm 0.01 in0.3 mm
07:21 AM 23.0°F-5.0°C -19.2°F-28.4°C 14% Calm Calm 1.4 mph2.3 kmh 29.37 in994.6 mb 0.00 in0.0 mm 0.00 in0.0 mm 0.01 in0.3 mm
07:36 AM 22.6°F-5.2°C -19.5°F-28.6°C 14% Calm Calm 2.0 mph3.2 kmh 29.39 in995.3 mb 0.00 in0.0 mm 0.00 in0.0 mm 0.01 in0.3 mm
07:51 AM 22.3°F-5.4°C -21.1°F-29.5°C 13% Calm Calm 1.4 mph2.3 kmh 29.40 in995.6 mb 0.00 in0.0 mm 0.00 in0.0 mm 0.01 in0.3 mm
08:06 AM 21.6°F-5.8°C -21.7°F-29.8°C 13% Calm Calm 1.4 mph2.3 kmh 29.42 in996.3 mb 0.00 in0.0 mm 0.00 in0.0 mm 0.01 in0.3 mm
08:21 AM 20.7°F-6.3°C -23.9°F-31.1°C 12% 0.6 mph N1.0 kmh N 2.8 mph4.5 kmh 29.44 in997.0 mb 0.00 in0.0 mm 0.00 in0.0 mm 0.01 in0.3 mm
08:36 AM 20.5°F-6.4°C -25.6°F-32.0°C 11% Calm Calm 0.6 mph1.0 kmh 29.45 in997.3 mb 0.00 in0.0 mm 0.00 in0.0 mm 0.01 in0.3 mm
08:51 AM 19.9°F-6.7°C -27.8°F-33.2°C 10% Calm Calm 2.0 mph3.2 kmh 29.47 in998.0 mb 0.00 in0.0 mm 0.00 in0.0 mm 0.01 in0.3 mm
09:06 AM 19.8°F-6.8°C -27.9°F-33.3°C 10% Calm Calm 0.6 mph1.0 kmh 29.47 in998.0 mb 0.00 in0.0 mm 0.00 in0.0 mm 0.01 in0.3 mm
09:21 AM 20.5°F-6.4°C -27.3°F-32.9°C 10% Calm Calm 1.4 mph2.3 kmh 29.49 in998.6 mb 0.00 in0.0 mm 0.00 in0.0 mm 0.01 in0.3 mm
09:36 AM 21.4°F-5.9°C -170.7°F-112.6°C - 0.6 mph N1.0 kmh N 2.0 mph3.2 kmh 29.50 in999.0 mb 0.00 in0.0 mm 0.00 in0.0 mm 0.01 in0.3 mm
09:51 AM 21.2°F-6.0°C -170.7°F-112.6°C - Calm Calm 1.4 mph2.3 kmh 29.52 in999.7 mb 0.00 in0.0 mm 0.00 in0.0 mm 0.01 in0.3 mm
10:06 AM 20.7°F-6.3°C -170.7°F-112.6°C - Calm Calm 0.6 mph1.0 kmh 29.53 in1000.0 mb 0.00 in0.0 mm 0.00 in0.0 mm 0.01 in0.3 mm
10:21 AM 20.5°F-6.4°C -170.8°F-112.7°C - Calm Calm 0.6 mph1.0 kmh 29.54 in1000.3 mb 0.00 in0.0 mm 0.00 in0.0 mm 0.01 in0.3 mm
10:36 AM 20.5°F-6.4°C -170.8°F-112.7°C - Calm Calm 2.0 mph3.2 kmh 29.55 in1000.7 mb 0.00 in0.0 mm 0.00 in0.0 mm 0.01 in0.3 mm
10:51 AM 20.3°F-6.5°C -170.8°F-112.7°C - Calm Calm 1.4 mph2.3 kmh 29.56 in1001.0 mb 0.00 in0.0 mm 0.00 in0.0 mm 0.01 in0.3 mm
11:06 AM 20.8°F-6.2°C -170.7°F-112.6°C - Calm Calm 0.6 mph1.0 kmh 29.57 in1001.4 mb 0.00 in0.0 mm 0.00 in0.0 mm 0.01 in0.3 mm
11:21 AM 21.0°F-6.1°C -170.7°F-112.6°C - Calm Calm 1.4 mph2.3 kmh 29.58 in1001.7 mb 0.00 in0.0 mm 0.00 in0.0 mm 0.01 in0.3 mm
11:36 AM 20.8°F-6.2°C -170.7°F-112.6°C - Calm Calm 1.4 mph2.3 kmh 29.59 in1002.0 mb 0.00 in0.0 mm 0.00 in0.0 mm 0.01 in0.3 mm
11:51 AM 20.7°F-6.3°C -170.7°F-112.6°C - Calm Calm 1.4 mph2.3 kmh 29.60 in1002.4 mb 0.00 in0.0 mm 0.00 in0.0 mm 0.01 in0.3 mm
12:06 PM 20.1°F-6.6°C -170.8°F-112.7°C - Calm Calm 0.6 mph1.0 kmh 29.60 in1002.4 mb 0.00 in0.0 mm 0.00 in0.0 mm 0.01 in0.3 mm
12:21 PM 19.9°F-6.7°C -170.8°F-112.7°C - Calm Calm 0.6 mph1.0 kmh 29.62 in1003.0 mb 0.00 in0.0 mm 0.00 in0.0 mm 0.01 in0.3 mm
12:36 PM 20.1°F-6.6°C -170.8°F-112.7°C - Calm Calm 0.6 mph1.0 kmh 29.62 in1003.0 mb 0.00 in0.0 mm 0.00 in0.0 mm 0.01 in0.3 mm
12:51 PM 20.1°F-6.6°C -170.8°F-112.7°C - Calm Calm 0.6 mph1.0 kmh 29.63 in1003.4 mb 0.00 in0.0 mm 0.00 in0.0 mm 0.01 in0.3 mm
01:06 PM 19.9°F-6.7°C -170.8°F-112.7°C - Calm Calm 0.6 mph1.0 kmh 29.64 in1003.7 mb 0.00 in0.0 mm 0.00 in0.0 mm 0.01 in0.3 mm
01:21 PM 19.6°F-6.9°C -170.8°F-112.7°C - Calm Calm 0.6 mph1.0 kmh 29.65 in1004.1 mb 0.00 in0.0 mm 0.00 in0.0 mm 0.01 in0.3 mm
01:36 PM 19.8°F-6.8°C -170.8°F-112.7°C - Calm Calm 0.6 mph1.0 kmh 29.66 in1004.4 mb 0.00 in0.0 mm 0.00 in0.0 mm 0.01 in0.3 mm
01:51 PM 19.6°F-6.9°C -170.8°F-112.7°C - Calm Calm -- 29.67 in1004.7 mb 0.00 in0.0 mm 0.00 in0.0 mm 0.01 in0.3 mm
02:06 PM 19.4°F-7.0°C -170.9°F-112.7°C - Calm Calm 0.6 mph1.0 kmh 29.68 in1005.1 mb 0.00 in0.0 mm 0.00 in0.0 mm 0.01 in0.3 mm
02:21 PM 19.2°F-7.1°C -170.9°F-112.7°C - Calm Calm 0.6 mph1.0 kmh 29.69 in1005.4 mb 0.00 in0.0 mm 0.00 in0.0 mm 0.01 in0.3 mm
02:36 PM 18.7°F-7.4°C -170.9°F-112.7°C - Calm Calm 1.4 mph2.3 kmh 29.69 in1005.4 mb 0.00 in0.0 mm 0.00 in0.0 mm 0.01 in0.3 mm
02:51 PM 18.5°F-7.5°C -171.0°F-112.8°C - Calm Calm 2.0 mph3.2 kmh 29.71 in1006.1 mb 0.00 in0.0 mm 0.00 in0.0 mm 0.01 in0.3 mm
03:06 PM 18.5°F-7.5°C -171.0°F-112.8°C - Calm Calm 0.6 mph1.0 kmh 29.72 in1006.4 mb 0.00 in0.0 mm 0.00 in0.0 mm 0.01 in0.3 mm
03:21 PM 18.5°F-7.5°C -171.0°F-112.8°C - Calm Calm 0.6 mph1.0 kmh 29.73 in1006.8 mb 0.00 in0.0 mm 0.00 in0.0 mm 0.01 in0.3 mm
03:36 PM 18.3°F-7.6°C -171.0°F-112.8°C - Calm Calm -- 29.73 in1006.8 mb 0.00 in0.0 mm 0.00 in0.0 mm 0.01 in0.3 mm
03:51 PM 18.0°F-7.8°C -171.0°F-112.8°C - Calm Calm 0.6 mph1.0 kmh 29.75 in1007.5 mb 0.00 in0.0 mm 0.00 in0.0 mm 0.01 in0.3 mm
04:06 PM 17.8°F-7.9°C -171.0°F-112.8°C - Calm Calm 1.4 mph2.3 kmh 29.75 in1007.5 mb 0.00 in0.0 mm 0.00 in0.0 mm 0.01 in0.3 mm
04:21 PM 17.6°F-8.0°C -171.0°F-112.8°C - Calm Calm 0.6 mph1.0 kmh 29.76 in1007.8 mb 0.00 in0.0 mm 0.00 in0.0 mm 0.01 in0.3 mm
04:36 PM 17.4°F-8.1°C -171.1°F-112.8°C - Calm Calm 0.6 mph1.0 kmh 29.77 in1008.1 mb 0.00 in0.0 mm 0.00 in0.0 mm 0.01 in0.3 mm
04:51 PM 17.4°F-8.1°C -171.1°F-112.8°C - Calm Calm -- 29.79 in1008.8 mb 0.00 in0.0 mm 0.00 in0.0 mm 0.01 in0.3 mm
05:06 PM 17.2°F-8.2°C -171.1°F-112.8°C - Calm Calm 1.4 mph2.3 kmh 29.79 in1008.8 mb 0.00 in0.0 mm 0.00 in0.0 mm 0.01 in0.3 mm
05:21 PM 17.1°F-8.3°C -171.1°F-112.8°C - Calm Calm 0.6 mph1.0 kmh 29.79 in1008.8 mb 0.00 in0.0 mm 0.00 in0.0 mm 0.01 in0.3 mm
05:36 PM 17.1°F-8.3°C -171.1°F-112.8°C - Calm Calm 0.6 mph1.0 kmh 29.80 in1009.1 mb 0.00 in0.0 mm 0.00 in0.0 mm 0.01 in0.3 mm
05:51 PM 16.9°F-8.4°C -171.1°F-112.8°C - Calm Calm 1.4 mph2.3 kmh 29.82 in1009.8 mb 0.00 in0.0 mm 0.00 in0.0 mm 0.01 in0.3 mm
06:06 PM 16.7°F-8.5°C -171.1°F-112.8°C - Calm Calm 1.4 mph2.3 kmh 29.83 in1010.2 mb 0.00 in0.0 mm 0.00 in0.0 mm 0.01 in0.3 mm
06:21 PM 16.9°F-8.4°C -171.1°F-112.8°C - Calm Calm 2.0 mph3.2 kmh 29.83 in1010.2 mb 0.00 in0.0 mm 0.00 in0.0 mm 0.01 in0.3 mm
06:36 PM 16.7°F-8.5°C -171.1°F-112.8°C - Calm Calm 0.6 mph1.0 kmh 29.84 in1010.5 mb 0.00 in0.0 mm 0.00 in0.0 mm 0.01 in0.3 mm
06:51 PM 16.7°F-8.5°C -171.1°F-112.8°C - Calm Calm 1.4 mph2.3 kmh 29.84 in1010.5 mb 0.00 in0.0 mm 0.00 in0.0 mm 0.01 in0.3 mm
07:06 PM 16.5°F-8.6°C -171.1°F-112.8°C - Calm Calm 0.6 mph1.0 kmh 29.85 in1010.8 mb 0.00 in0.0 mm 0.00 in0.0 mm 0.01 in0.3 mm
07:21 PM 16.2°F-8.8°C -171.2°F-112.9°C - Calm Calm 0.6 mph1.0 kmh 29.86 in1011.2 mb 0.00 in0.0 mm 0.00 in0.0 mm 0.01 in0.3 mm
07:36 PM 16.0°F-8.9°C -171.2°F-112.9°C - Calm Calm 0.6 mph1.0 kmh 29.87 in1011.5 mb 0.00 in0.0 mm 0.00 in0.0 mm 0.01 in0.3 mm
07:51 PM 15.8°F-9.0°C -171.2°F-112.9°C - Calm Calm 0.6 mph1.0 kmh 29.88 in1011.9 mb 0.00 in0.0 mm 0.00 in0.0 mm 0.01 in0.3 mm
08:06 PM 15.6°F-9.1°C -171.2°F-112.9°C - Calm Calm -- 29.88 in1011.9 mb 0.00 in0.0 mm 0.00 in0.0 mm 0.01 in0.3 mm
08:21 PM 15.6°F-9.1°C -171.2°F-112.9°C - Calm Calm -- 29.89 in1012.2 mb 0.00 in0.0 mm 0.00 in0.0 mm 0.01 in0.3 mm
08:36 PM 15.8°F-9.0°C -171.2°F-112.9°C - Calm Calm -- 29.90 in1012.5 mb 0.00 in0.0 mm 0.00 in0.0 mm 0.01 in0.3 mm
08:51 PM 16.0°F-8.9°C -171.2°F-112.9°C - Calm Calm 0.6 mph1.0 kmh 29.90 in1012.5 mb 0.00 in0.0 mm 0.00 in0.0 mm 0.01 in0.3 mm
09:06 PM 16.5°F-8.6°C -171.1°F-112.8°C - Calm Calm 0.6 mph1.0 kmh 29.91 in1012.9 mb 0.00 in0.0 mm 0.00 in0.0 mm 0.01 in0.3 mm
09:21 PM 16.5°F-8.6°C -171.1°F-112.8°C - Calm Calm 0.6 mph1.0 kmh 29.91 in1012.9 mb 0.00 in0.0 mm 0.00 in0.0 mm 0.01 in0.3 mm
09:36 PM 16.5°F-8.6°C -171.1°F-112.8°C - Calm Calm -- 29.92 in1013.2 mb 0.00 in0.0 mm 0.00 in0.0 mm 0.01 in0.3 mm
09:51 PM 16.5°F-8.6°C -171.1°F-112.8°C - Calm Calm 1.4 mph2.3 kmh 29.92 in1013.2 mb 0.00 in0.0 mm 0.00 in0.0 mm 0.01 in0.3 mm
10:06 PM 16.3°F-8.7°C -171.2°F-112.9°C - Calm Calm 0.6 mph1.0 kmh 29.93 in1013.5 mb 0.00 in0.0 mm 0.00 in0.0 mm 0.01 in0.3 mm
10:21 PM 16.3°F-8.7°C -171.2°F-112.9°C - Calm Calm 0.6 mph1.0 kmh 29.93 in1013.5 mb 0.00 in0.0 mm 0.00 in0.0 mm 0.01 in0.3 mm
10:36 PM 16.2°F-8.8°C -171.2°F-112.9°C - Calm Calm 1.4 mph2.3 kmh 29.94 in1013.9 mb 0.00 in0.0 mm 0.00 in0.0 mm 0.01 in0.3 mm
10:51 PM 16.2°F-8.8°C -171.2°F-112.9°C - Calm Calm 0.6 mph1.0 kmh 29.95 in1014.2 mb 0.00 in0.0 mm 0.00 in0.0 mm 0.01 in0.3 mm
11:06 PM 16.2°F-8.8°C -171.2°F-112.9°C - Calm Calm -- 29.94 in1013.9 mb 0.00 in0.0 mm 0.00 in0.0 mm 0.01 in0.3 mm
11:21 PM 16.2°F-8.8°C -171.2°F-112.9°C - Calm Calm -- 29.95 in1014.2 mb 0.00 in0.0 mm 0.00 in0.0 mm 0.01 in0.3 mm
11:36 PM 16.2°F-8.8°C -171.2°F-112.9°C - Calm Calm 0.6 mph1.0 kmh 29.96 in1014.6 mb 0.00 in0.0 mm 0.00 in0.0 mm 0.01 in0.3 mm
11:51 PM 16.0°F-8.9°C -171.2°F-112.9°C - Calm Calm 0.6 mph1.0 kmh 29.97 in1014.9 mb 0.00 in0.0 mm 0.00 in0.0 mm 0.01 in0.3 mm